Buoy 61656

sailwx.info

Track history (hours):
 
Tides and Currents Weather Stations Pressure Air Temp Water Temp Dewpoint Dewpoint Depression Visibility Wind Speed Wind Dir Waves Ship Positions

Min Dong Yu61656

Last reported at 2014-Jul-16 08:00 UTC. Time now 2014-Jul-24 10:44 UTC.
Position N 31°29' E 026°25'.
Warning: this ship's position is 8 days out of date.

Length 28 m.

Type: Fishing. MMSI: 412446018.

Water temperature 29.3 ° C

Date/timePositionNaut miles runAvg speedWind from/ knotsBaromVisibWave heightAir tempDewpointWater temp
2014-Jul-16 08:00N 31°29' E 026°25'1 1.1 29.3
2014-Jul-16 07:00N 31°29' E 026°24'1 0.3 27.6
2014-Jul-16 04:00N 31°29' E 026°25'0 0.2 21.0
2014-Jul-16 03:00N 31°29' E 026°25'0 0.2 21.0
2014-Jul-16 02:00N 31°29' E 026°25'0 0.1 21.2
2014-Jul-16 00:00N 31°29' E 026°25'0 0.3 21.7
2014-Jul-15 23:00N 31°29' E 026°25'0 0.1 22.1
2014-Jul-15 20:00N 31°29' E 026°25'0 0.3 24.2
2014-Jul-15 19:00N 31°29' E 026°25'1 1.0 25.2
2014-Jul-15 18:00N 31°30' E 026°25'0 0.2 25.7
2014-Jul-15 16:00N 31°29' E 026°25'0 0.2 32.0
2014-Jul-15 14:00N 31°29' E 026°25'0 0.2 33.9
2014-Jul-15 13:00N 31°29' E 026°25'0 0.1 32.6
2014-Jul-15 11:00N 31°29' E 026°25'1 0.7 31.4
2014-Jul-15 10:00N 31°30' E 026°25'0 0.3 30.8
2014-Jul-15 09:00N 31°30' E 026°25'1 0.7 30.3
2014-Jul-15 08:00N 31°29' E 026°26'1 0.7 29.0
2014-Jul-15 06:00N 31°31' E 026°25'0 0.0 26.0
2014-Jul-15 05:00N 31°31' E 026°25'0 0.1 25.2
2014-Jul-15 04:00N 31°31' E 026°26'1 0.2 24.5
2014-Jul-15 00:00N 31°31' E 026°25'1 0.2 24.0
2014-Jul-14 20:00N 31°31' E 026°26'0 0.2 25.2
2014-Jul-14 19:00N 31°31' E 026°25'0 0.1 25.4
2014-Jul-14 16:00N 31°31' E 026°25'0 0.1 27.8
2014-Jul-14 15:00N 31°31' E 026°25'0 0.1 28.9
2014-Jul-14 13:00N 31°31' E 026°26'0 0.0 30.2
2014-Jul-14 11:00N 31°31' E 026°26'0 0.1 29.7
2014-Jul-14 08:00N 31°30' E 026°25'0 0.0 27.9
2014-Jul-14 04:00N 31°30' E 026°25'0 0.2 24.2
2014-Jul-14 02:00N 31°31' E 026°25'0 0.0 24.2
2014-Jul-13 23:00N 31°31' E 026°25'0 0.0 24.4
2014-Jul-13 17:00N 31°31' E 026°25'1 0.1 26.7
2014-Jul-13 10:00N 31°31' E 026°26'1 0.6 29.0
2014-Jul-13 09:00N 31°30' E 026°25'0 0.0 28.5
2014-Jul-13 08:00N 31°30' E 026°25'1 0.2 27.7
2014-Jul-13 04:00N 31°31' E 026°26'0 0.0 23.9
2014-Jul-13 03:00N 31°31' E 026°26'0 0.0 23.8
2014-Jul-12 08:00N 31°31' E 026°25'0 0.0 28.1
2014-Jul-12 04:00N 31°31' E 026°25'0 0.3 25.1
2014-Jul-12 03:00N 31°31' E 026°26'0 0.1 25.2
2014-Jul-12 00:00N 31°30' E 026°26'0 0.0 25.6
2014-Jul-11 15:00N 31°31' E 026°26'0 0.0 33.7
2014-Jul-11 04:00N 31°30' E 026°25'0 0.3 23.4
2014-Jul-11 03:00N 31°31' E 026°25'0 0.2 22.4
2014-Jul-11 00:00N 31°30' E 026°26'0 0.1 21.4
2014-Jul-10 20:00N 31°31' E 026°26'0 0.1 23.2
2014-Jul-10 17:00N 31°31' E 026°25'0 0.0 27.6
2014-Jul-10 15:00N 31°31' E 026°25'0 0.0 29.4
2014-Jul-10 12:00N 31°31' E 026°26'0 0.0 30.6
2014-Jul-10 11:00N 31°31' E 026°26'0 0.0 30.2
2014-Jul-10 04:00N 31°31' E 026°26'0 0.1 22.7
2014-Jul-10 01:00N 31°31' E 026°26'0 0.0 23.1
2014-Jul-09 15:00N 31°31' E 026°26'1 0.1 28.5
2014-Jul-09 09:00N 31°32' E 026°25'1 0.8 28.4
2014-Jul-09 08:00N 31°31' E 026°25'0 0.0 27.8
2014-Jul-09 04:00N 31°31' E 026°25'0 0.0 26.3
2014-Jul-09 02:00N 31°31' E 026°25'0 0.1 26.1
2014-Jul-09 01:00N 31°31' E 026°25'1 0.2 26.0
2014-Jul-08 22:00N 31°31' E 026°25'1 0.5 26.7
2014-Jul-08 20:00N 31°31' E 026°26'0 0.5 27.1
2014-Jul-08 19:00N 31°31' E 026°25'0 0.1 27.3
2014-Jul-08 15:00N 31°31' E 026°25'1 1.1 27.1
2014-Jul-08 14:00N 31°31' E 026°24'0 0.3 27.0
2014-Jul-08 13:00N 31°32' E 026°24'0 0.1 26.9
2014-Jul-08 12:00N 31°32' E 026°24'1 0.8 26.8
2014-Jul-08 11:00N 31°32' E 026°23'1 0.5 26.8
2014-Jul-08 09:00N 31°32' E 026°22'1 0.5 26.7
2014-Jul-08 08:00N 31°33' E 026°21'1 1.4 26.6
2014-Jul-08 07:00N 31°33' E 026°20'0 0.0 26.4
2014-Jul-08 06:00N 31°33' E 026°20'0 0.1 26.4
2014-Jul-08 04:00N 31°33' E 026°20'1 0.6 26.3
2014-Jul-08 03:00N 31°33' E 026°19'0 0.4 26.3
2014-Jul-08 02:00N 31°33' E 026°18'0 0.2 26.3
2014-Jul-08 01:00N 31°33' E 026°19'0 0.5 26.4
2014-Jul-08 00:00N 31°33' E 026°18'0 0.0 26.4
2014-Jul-07 23:00N 31°33' E 026°18'1 0.3 26.3
2014-Jul-07 19:00N 31°34' E 026°17'0 0.4 26.3
2014-Jul-07 18:00N 31°34' E 026°16'1 0.5 26.3
2014-Jul-07 17:00N 31°33' E 026°16'1 0.8 26.3
2014-Jul-07 16:00N 31°34' E 026°16'0 0.1 26.2
2014-Jul-07 15:00N 31°34' E 026°16'2 0.9 26.2
2014-Jul-07 13:00N 31°34' E 026°14'1 0.5 25.9
2014-Jul-07 11:00N 31°35' E 026°14'0 0.0 25.8
2014-Jul-07 10:00N 31°35' E 026°14'2 1.6 25.7
2014-Jul-07 09:00N 31°36' E 026°12'0 0.4 25.7
2014-Jul-07 08:00N 31°37' E 026°12'2 0.8 25.6
2014-Jul-07 06:00N 31°37' E 026°10'1 0.5 25.6
2014-Jul-07 04:00N 31°37' E 026°09'0 0.4 25.5
2014-Jul-07 03:00N 31°37' E 026°09'1 0.9 25.6
2014-Jul-07 02:00N 31°37' E 026°08'0 0.5 25.6
2014-Jul-07 01:00N 31°37' E 026°08'1 0.9 25.6
2014-Jul-07 00:00N 31°38' E 026°07'1 1.0 25.7
2014-Jul-06 23:00N 31°38' E 026°06'1 0.2 25.7
2014-Jul-06 20:00N 31°38' E 026°05'0 0.2 25.5
2014-Jul-06 19:00N 31°38' E 026°05'1 0.9 25.6
2014-Jul-06 18:00N 31°38' E 026°04'1 0.4 25.6
2014-Jul-06 15:00N 31°39' E 026°03'1 0.6 25.6
2014-Jul-06 14:00N 31°39' E 026°03'1 0.7 25.6
2014-Jul-06 13:00N 31°40' E 026°02'1 0.6 25.5
2014-Jul-06 11:00N 31°41' E 026°01'2 2.0 25.5
2014-Jul-06 10:00N 31°42' E 025°59'0 0.1 25.5
2014-Jul-06 08:00N 31°42' E 025°59'   25.3
Track history (hours):
 
Tides and Currents Weather Stations Pressure Air Temp Water Temp Dewpoint Dewpoint Depression Visibility Wind Speed Wind Dir Waves Ship Positions

Min Dong Yu61656

Last reported at 2014-Jul-16 08:00 UTC. Time now 2014-Jul-24 10:44 UTC.
Position N 31°29' E 026°25'.
Warning: this ship's position is 8 days out of date.

Length 28 m.

Type: Fishing. MMSI: 412446018.

Water temperature 29.3 ° C

Date/timePositionNaut miles runAvg speedWind from/ knotsBaromVisibWave heightAir tempDewpointWater temp
2014-Jul-16 08:00N 31°29' E 026°25'1 1.1 29.3
2014-Jul-16 07:00N 31°29' E 026°24'1 0.3 27.6
2014-Jul-16 04:00N 31°29' E 026°25'0 0.2 21.0
2014-Jul-16 03:00N 31°29' E 026°25'0 0.2 21.0
2014-Jul-16 02:00N 31°29' E 026°25'0 0.1 21.2
2014-Jul-16 00:00N 31°29' E 026°25'0 0.3 21.7
2014-Jul-15 23:00N 31°29' E 026°25'0 0.1 22.1
2014-Jul-15 20:00N 31°29' E 026°25'0 0.3 24.2
2014-Jul-15 19:00N 31°29' E 026°25'1 1.0 25.2
2014-Jul-15 18:00N 31°30' E 026°25'0 0.2 25.7
2014-Jul-15 16:00N 31°29' E 026°25'0 0.2 32.0
2014-Jul-15 14:00N 31°29' E 026°25'0 0.2 33.9
2014-Jul-15 13:00N 31°29' E 026°25'0 0.1 32.6
2014-Jul-15 11:00N 31°29' E 026°25'1 0.7 31.4
2014-Jul-15 10:00N 31°30' E 026°25'0 0.3 30.8
2014-Jul-15 09:00N 31°30' E 026°25'1 0.7 30.3
2014-Jul-15 08:00N 31°29' E 026°26'1 0.7 29.0
2014-Jul-15 06:00N 31°31' E 026°25'0 0.0 26.0
2014-Jul-15 05:00N 31°31' E 026°25'0 0.1 25.2
2014-Jul-15 04:00N 31°31' E 026°26'1 0.2 24.5
2014-Jul-15 00:00N 31°31' E 026°25'1 0.2 24.0
2014-Jul-14 20:00N 31°31' E 026°26'0 0.2 25.2
2014-Jul-14 19:00N 31°31' E 026°25'0 0.1 25.4
2014-Jul-14 16:00N 31°31' E 026°25'0 0.1 27.8
2014-Jul-14 15:00N 31°31' E 026°25'0 0.1 28.9
2014-Jul-14 13:00N 31°31' E 026°26'0 0.0 30.2
2014-Jul-14 11:00N 31°31' E 026°26'0 0.1 29.7
2014-Jul-14 08:00N 31°30' E 026°25'0 0.0 27.9
2014-Jul-14 04:00N 31°30' E 026°25'0 0.2 24.2
2014-Jul-14 02:00N 31°31' E 026°25'0 0.0 24.2
2014-Jul-13 23:00N 31°31' E 026°25'0 0.0 24.4
2014-Jul-13 17:00N 31°31' E 026°25'1 0.1 26.7
2014-Jul-13 10:00N 31°31' E 026°26'1 0.6 29.0
2014-Jul-13 09:00N 31°30' E 026°25'0 0.0 28.5
2014-Jul-13 08:00N 31°30' E 026°25'1 0.2 27.7
2014-Jul-13 04:00N 31°31' E 026°26'0 0.0 23.9
2014-Jul-13 03:00N 31°31' E 026°26'0 0.0 23.8
2014-Jul-12 08:00N 31°31' E 026°25'0 0.0 28.1
2014-Jul-12 04:00N 31°31' E 026°25'0 0.3 25.1
2014-Jul-12 03:00N 31°31' E 026°26'0 0.1 25.2
2014-Jul-12 00:00N 31°30' E 026°26'0 0.0 25.6
2014-Jul-11 15:00N 31°31' E 026°26'0 0.0 33.7
2014-Jul-11 04:00N 31°30' E 026°25'0 0.3 23.4
2014-Jul-11 03:00N 31°31' E 026°25'0 0.2 22.4
2014-Jul-11 00:00N 31°30' E 026°26'0 0.1 21.4
2014-Jul-10 20:00N 31°31' E 026°26'0 0.1 23.2
2014-Jul-10 17:00N 31°31' E 026°25'0 0.0 27.6
2014-Jul-10 15:00N 31°31' E 026°25'0 0.0 29.4
2014-Jul-10 12:00N 31°31' E 026°26'0 0.0 30.6
2014-Jul-10 11:00N 31°31' E 026°26'0 0.0 30.2
2014-Jul-10 04:00N 31°31' E 026°26'0 0.1 22.7
2014-Jul-10 01:00N 31°31' E 026°26'0 0.0 23.1
2014-Jul-09 15:00N 31°31' E 026°26'1 0.1 28.5
2014-Jul-09 09:00N 31°32' E 026°25'1 0.8 28.4
2014-Jul-09 08:00N 31°31' E 026°25'0 0.0 27.8
2014-Jul-09 04:00N 31°31' E 026°25'0 0.0 26.3
2014-Jul-09 02:00N 31°31' E 026°25'0 0.1 26.1
2014-Jul-09 01:00N 31°31' E 026°25'1 0.2 26.0
2014-Jul-08 22:00N 31°31' E 026°25'1 0.5 26.7
2014-Jul-08 20:00N 31°31' E 026°26'0 0.5 27.1
2014-Jul-08 19:00N 31°31' E 026°25'0 0.1 27.3
2014-Jul-08 15:00N 31°31' E 026°25'1 1.1 27.1
2014-Jul-08 14:00N 31°31' E 026°24'0 0.3 27.0
2014-Jul-08 13:00N 31°32' E 026°24'0 0.1 26.9
2014-Jul-08 12:00N 31°32' E 026°24'1 0.8 26.8
2014-Jul-08 11:00N 31°32' E 026°23'1 0.5 26.8
2014-Jul-08 09:00N 31°32' E 026°22'1 0.5 26.7
2014-Jul-08 08:00N 31°33' E 026°21'1 1.4 26.6
2014-Jul-08 07:00N 31°33' E 026°20'0 0.0 26.4
2014-Jul-08 06:00N 31°33' E 026°20'0 0.1 26.4
2014-Jul-08 04:00N 31°33' E 026°20'1 0.6 26.3
2014-Jul-08 03:00N 31°33' E 026°19'0 0.4 26.3
2014-Jul-08 02:00N 31°33' E 026°18'0 0.2 26.3
2014-Jul-08 01:00N 31°33' E 026°19'0 0.5 26.4
2014-Jul-08 00:00N 31°33' E 026°18'0 0.0 26.4
2014-Jul-07 23:00N 31°33' E 026°18'1 0.3 26.3
2014-Jul-07 19:00N 31°34' E 026°17'0 0.4 26.3
2014-Jul-07 18:00N 31°34' E 026°16'1 0.5 26.3
2014-Jul-07 17:00N 31°33' E 026°16'1 0.8 26.3
2014-Jul-07 16:00N 31°34' E 026°16'0 0.1 26.2
2014-Jul-07 15:00N 31°34' E 026°16'2 0.9 26.2
2014-Jul-07 13:00N 31°34' E 026°14'1 0.5 25.9
2014-Jul-07 11:00N 31°35' E 026°14'0 0.0 25.8
2014-Jul-07 10:00N 31°35' E 026°14'2 1.6 25.7
2014-Jul-07 09:00N 31°36' E 026°12'0 0.4 25.7
2014-Jul-07 08:00N 31°37' E 026°12'2 0.8 25.6
2014-Jul-07 06:00N 31°37' E 026°10'1 0.5 25.6
2014-Jul-07 04:00N 31°37' E 026°09'0 0.4 25.5
2014-Jul-07 03:00N 31°37' E 026°09'1 0.9 25.6
2014-Jul-07 02:00N 31°37' E 026°08'0 0.5 25.6
2014-Jul-07 01:00N 31°37' E 026°08'1 0.9 25.6
2014-Jul-07 00:00N 31°38' E 026°07'1 1.0 25.7
2014-Jul-06 23:00N 31°38' E 026°06'1 0.2 25.7
2014-Jul-06 20:00N 31°38' E 026°05'0 0.2 25.5
2014-Jul-06 19:00N 31°38' E 026°05'1 0.9 25.6
2014-Jul-06 18:00N 31°38' E 026°04'1 0.4 25.6
2014-Jul-06 15:00N 31°39' E 026°03'1 0.6 25.6
2014-Jul-06 14:00N 31°39' E 026°03'1 0.7 25.6
2014-Jul-06 13:00N 31°40' E 026°02'1 0.6 25.5
2014-Jul-06 11:00N 31°41' E 026°01'2 2.0 25.5
2014-Jul-06 10:00N 31°42' E 025°59'0 0.1 25.5
2014-Jul-06 08:00N 31°42' E 025°59'   25.3

Dump ship's entire track history